sensor_id;sensor_type;location;lat;lon;timestamp;temperature;humidity
14099;DHT22;7126;48.458;7.930;2024-03-06T00:00:27;8.40;99.90
14099;DHT22;7126;48.458;7.930;2024-03-06T00:02:52;8.40;99.90
14099;DHT22;7126;48.458;7.930;2024-03-06T00:05:18;8.40;99.90
14099;DHT22;7126;48.458;7.930;2024-03-06T00:07:43;8.40;99.90
14099;DHT22;7126;48.458;7.930;2024-03-06T00:10:09;8.40;99.90
14099;DHT22;7126;48.458;7.930;2024-03-06T00:12:35;8.30;99.90
14099;DHT22;7126;48.458;7.930;2024-03-06T00:15:00;8.30;99.90
14099;DHT22;7126;48.458;7.930;2024-03-06T00:17:27;8.40;99.90
14099;DHT22;7126;48.458;7.930;2024-03-06T00:19:53;8.30;99.90
14099;DHT22;7126;48.458;7.930;2024-03-06T00:22:18;8.20;99.90
14099;DHT22;7126;48.458;7.930;2024-03-06T00:24:44;8.20;99.90
14099;DHT22;7126;48.458;7.930;2024-03-06T00:27:10;8.20;99.90
14099;DHT22;7126;48.458;7.930;2024-03-06T00:29:35;8.20;99.90
14099;DHT22;7126;48.458;7.930;2024-03-06T00:32:03;8.10;99.90
14099;DHT22;7126;48.458;7.930;2024-03-06T00:34:29;8.20;99.90
14099;DHT22;7126;48.458;7.930;2024-03-06T00:36:54;8.20;99.90
14099;DHT22;7126;48.458;7.930;2024-03-06T00:39:20;8.30;99.90
14099;DHT22;7126;48.458;7.930;2024-03-06T00:41:46;8.40;99.90
14099;DHT22;7126;48.458;7.930;2024-03-06T00:44:11;8.50;99.90
14099;DHT22;7126;48.458;7.930;2024-03-06T00:46:37;8.50;99.90
14099;DHT22;7126;48.458;7.930;2024-03-06T00:49:03;8.40;99.90
14099;DHT22;7126;48.458;7.930;2024-03-06T00:51:29;8.30;99.90
14099;DHT22;7126;48.458;7.930;2024-03-06T00:53:54;8.30;99.90
14099;DHT22;7126;48.458;7.930;2024-03-06T00:56:20;8.30;99.90
14099;DHT22;7126;48.458;7.930;2024-03-06T00:58:45;8.30;99.90
14099;DHT22;7126;48.458;7.930;2024-03-06T01:01:12;8.40;99.90
14099;DHT22;7126;48.458;7.930;2024-03-06T01:03:38;8.30;99.90
14099;DHT22;7126;48.458;7.930;2024-03-06T01:06:04;8.30;99.90
14099;DHT22;7126;48.458;7.930;2024-03-06T01:08:29;8.30;99.90
14099;DHT22;7126;48.458;7.930;2024-03-06T01:10:57;8.30;99.90
14099;DHT22;7126;48.458;7.930;2024-03-06T01:13:22;8.30;99.90
14099;DHT22;7126;48.458;7.930;2024-03-06T01:15:48;8.30;99.90
14099;DHT22;7126;48.458;7.930;2024-03-06T01:18:13;8.30;99.90
14099;DHT22;7126;48.458;7.930;2024-03-06T01:20:39;8.40;99.90
14099;DHT22;7126;48.458;7.930;2024-03-06T01:23:05;8.40;99.90
14099;DHT22;7126;48.458;7.930;2024-03-06T01:25:31;8.40;99.90
14099;DHT22;7126;48.458;7.930;2024-03-06T01:27:57;8.30;99.90
14099;DHT22;7126;48.458;7.930;2024-03-06T01:30:22;8.30;99.90
14099;DHT22;7126;48.458;7.930;2024-03-06T01:32:48;8.30;99.90
14099;DHT22;7126;48.458;7.930;2024-03-06T01:35:13;8.20;99.90
14099;DHT22;7126;48.458;7.930;2024-03-06T01:37:39;8.20;99.90
14099;DHT22;7126;48.458;7.930;2024-03-06T01:40:05;8.20;99.90
14099;DHT22;7126;48.458;7.930;2024-03-06T01:42:31;8.20;99.90
14099;DHT22;7126;48.458;7.930;2024-03-06T01:44:56;8.30;99.90
14099;DHT22;7126;48.458;7.930;2024-03-06T01:47:22;8.20;99.90
14099;DHT22;7126;48.458;7.930;2024-03-06T01:49:48;8.20;99.90
14099;DHT22;7126;48.458;7.930;2024-03-06T01:52:14;8.20;99.90
14099;DHT22;7126;48.458;7.930;2024-03-06T01:54:42;8.20;99.90
14099;DHT22;7126;48.458;7.930;2024-03-06T01:57:08;8.20;99.90
14099;DHT22;7126;48.458;7.930;2024-03-06T01:59:34;8.20;99.90
14099;DHT22;7126;48.458;7.930;2024-03-06T02:02:00;8.20;99.90
14099;DHT22;7126;48.458;7.930;2024-03-06T02:04:27;8.20;99.90
14099;DHT22;7126;48.458;7.930;2024-03-06T02:06:53;8.20;99.90
14099;DHT22;7126;48.458;7.930;2024-03-06T02:09:19;8.20;99.90
14099;DHT22;7126;48.458;7.930;2024-03-06T02:11:45;8.20;99.90
14099;DHT22;7126;48.458;7.930;2024-03-06T02:14:11;8.10;99.90
14099;DHT22;7126;48.458;7.930;2024-03-06T02:16:37;8.10;99.90
14099;DHT22;7126;48.458;7.930;2024-03-06T02:19:06;8.10;99.90
14099;DHT22;7126;48.458;7.930;2024-03-06T02:21:31;8.10;99.90
14099;DHT22;7126;48.458;7.930;2024-03-06T02:23:57;8.10;99.90
14099;DHT22;7126;48.458;7.930;2024-03-06T02:26:23;8.10;99.90
14099;DHT22;7126;48.458;7.930;2024-03-06T02:28:53;8.00;99.90
14099;DHT22;7126;48.458;7.930;2024-03-06T02:31:20;8.10;99.90
14099;DHT22;7126;48.458;7.930;2024-03-06T02:33:47;8.10;99.90
14099;DHT22;7126;48.458;7.930;2024-03-06T02:36:13;8.10;99.90
14099;DHT22;7126;48.458;7.930;2024-03-06T02:38:39;8.20;99.90
14099;DHT22;7126;48.458;7.930;2024-03-06T02:41:05;8.10;99.90
14099;DHT22;7126;48.458;7.930;2024-03-06T02:43:35;8.10;99.90
14099;DHT22;7126;48.458;7.930;2024-03-06T02:46:00;8.10;99.90
14099;DHT22;7126;48.458;7.930;2024-03-06T02:48:26;8.10;99.90
14099;DHT22;7126;48.458;7.930;2024-03-06T02:50:51;8.10;99.90
14099;DHT22;7126;48.458;7.930;2024-03-06T02:53:17;8.00;99.90
14099;DHT22;7126;48.458;7.930;2024-03-06T02:55:42;8.10;99.90
14099;DHT22;7126;48.458;7.930;2024-03-06T02:58:08;8.00;99.90
14099;DHT22;7126;48.458;7.930;2024-03-06T03:00:33;8.00;99.90
14099;DHT22;7126;48.458;7.930;2024-03-06T03:02:59;8.00;99.90
14099;DHT22;7126;48.458;7.930;2024-03-06T03:05:24;8.00;99.90
14099;DHT22;7126;48.458;7.930;2024-03-06T03:07:50;8.00;99.90
14099;DHT22;7126;48.458;7.930;2024-03-06T03:10:16;8.00;99.90
14099;DHT22;7126;48.458;7.930;2024-03-06T03:12:42;7.90;99.90
14099;DHT22;7126;48.458;7.930;2024-03-06T03:15:08;7.90;99.90
14099;DHT22;7126;48.458;7.930;2024-03-06T03:17:34;7.90;99.90
14099;DHT22;7126;48.458;7.930;2024-03-06T03:20:00;8.00;99.90
14099;DHT22;7126;48.458;7.930;2024-03-06T03:22:26;7.90;99.90
14099;DHT22;7126;48.458;7.930;2024-03-06T03:24:51;8.00;99.90
14099;DHT22;7126;48.458;7.930;2024-03-06T03:27:17;8.00;99.90
14099;DHT22;7126;48.458;7.930;2024-03-06T03:29:43;8.00;99.90
14099;DHT22;7126;48.458;7.930;2024-03-06T03:32:15;8.10;99.90
14099;DHT22;7126;48.458;7.930;2024-03-06T03:34:41;8.10;99.90
14099;DHT22;7126;48.458;7.930;2024-03-06T03:37:07;8.20;99.90
14099;DHT22;7126;48.458;7.930;2024-03-06T03:39:34;8.20;99.90
14099;DHT22;7126;48.458;7.930;2024-03-06T03:41:59;8.20;99.90
14099;DHT22;7126;48.458;7.930;2024-03-06T03:44:25;8.20;99.90
14099;DHT22;7126;48.458;7.930;2024-03-06T03:46:50;8.20;99.90
14099;DHT22;7126;48.458;7.930;2024-03-06T03:49:16;8.20;99.90
14099;DHT22;7126;48.458;7.930;2024-03-06T03:51:42;8.20;99.90
14099;DHT22;7126;48.458;7.930;2024-03-06T03:54:07;8.20;99.90
14099;DHT22;7126;48.458;7.930;2024-03-06T03:56:33;8.20;99.90
14099;DHT22;7126;48.458;7.930;2024-03-06T03:58:59;8.20;99.90
14099;DHT22;7126;48.458;7.930;2024-03-06T04:01:27;8.20;99.90
14099;DHT22;7126;48.458;7.930;2024-03-06T04:03:53;8.20;99.90
14099;DHT22;7126;48.458;7.930;2024-03-06T04:06:18;8.10;99.90
14099;DHT22;7126;48.458;7.930;2024-03-06T04:08:44;8.10;99.90
14099;DHT22;7126;48.458;7.930;2024-03-06T04:11:09;8.00;99.90
14099;DHT22;7126;48.458;7.930;2024-03-06T04:13:38;8.10;99.90
14099;DHT22;7126;48.458;7.930;2024-03-06T04:16:04;8.10;99.90
14099;DHT22;7126;48.458;7.930;2024-03-06T04:18:31;8.20;99.90
14099;DHT22;7126;48.458;7.930;2024-03-06T04:21:06;8.20;99.90
14099;DHT22;7126;48.458;7.930;2024-03-06T04:23:32;8.20;99.90
14099;DHT22;7126;48.458;7.930;2024-03-06T04:25:59;8.20;99.90
14099;DHT22;7126;48.458;7.930;2024-03-06T04:28:25;8.20;99.90
14099;DHT22;7126;48.458;7.930;2024-03-06T04:30:50;8.20;99.90
14099;DHT22;7126;48.458;7.930;2024-03-06T04:33:16;8.30;99.90
14099;DHT22;7126;48.458;7.930;2024-03-06T04:35:41;8.20;99.90
14099;DHT22;7126;48.458;7.930;2024-03-06T04:38:07;8.20;99.90
14099;DHT22;7126;48.458;7.930;2024-03-06T04:40:33;8.20;99.90
14099;DHT22;7126;48.458;7.930;2024-03-06T04:43:00;8.10;99.90
14099;DHT22;7126;48.458;7.930;2024-03-06T04:45:25;8.10;99.90
14099;DHT22;7126;48.458;7.930;2024-03-06T04:47:51;8.10;99.90
14099;DHT22;7126;48.458;7.930;2024-03-06T04:50:16;8.10;99.90
14099;DHT22;7126;48.458;7.930;2024-03-06T04:52:43;8.20;99.90
14099;DHT22;7126;48.458;7.930;2024-03-06T04:55:10;8.20;99.90
14099;DHT22;7126;48.458;7.930;2024-03-06T04:57:37;8.30;99.90
14099;DHT22;7126;48.458;7.930;2024-03-06T05:00:03;8.20;99.90
14099;DHT22;7126;48.458;7.930;2024-03-06T05:02:34;8.20;99.90
14099;DHT22;7126;48.458;7.930;2024-03-06T05:05:02;8.20;99.90
14099;DHT22;7126;48.458;7.930;2024-03-06T05:07:28;8.20;99.90
14099;DHT22;7126;48.458;7.930;2024-03-06T05:09:55;8.20;99.90
14099;DHT22;7126;48.458;7.930;2024-03-06T05:12:20;8.20;99.90
14099;DHT22;7126;48.458;7.930;2024-03-06T05:14:46;8.20;99.90
14099;DHT22;7126;48.458;7.930;2024-03-06T05:17:11;8.20;99.90
14099;DHT22;7126;48.458;7.930;2024-03-06T05:19:37;8.20;99.90
14099;DHT22;7126;48.458;7.930;2024-03-06T05:22:03;8.20;99.90
14099;DHT22;7126;48.458;7.930;2024-03-06T05:24:29;8.10;99.90
14099;DHT22;7126;48.458;7.930;2024-03-06T05:26:55;8.10;99.90
14099;DHT22;7126;48.458;7.930;2024-03-06T05:29:20;8.20;99.90
14099;DHT22;7126;48.458;7.930;2024-03-06T05:31:46;8.20;99.90
14099;DHT22;7126;48.458;7.930;2024-03-06T05:34:11;8.20;99.90
14099;DHT22;7126;48.458;7.930;2024-03-06T05:36:36;8.30;99.90
14099;DHT22;7126;48.458;7.930;2024-03-06T05:39:02;8.30;99.90
14099;DHT22;7126;48.458;7.930;2024-03-06T05:41:32;8.40;99.90
14099;DHT22;7126;48.458;7.930;2024-03-06T05:43:58;8.30;99.90
14099;DHT22;7126;48.458;7.930;2024-03-06T05:46:23;8.30;99.90
14099;DHT22;7126;48.458;7.930;2024-03-06T05:48:49;8.20;99.90
14099;DHT22;7126;48.458;7.930;2024-03-06T05:51:16;8.20;99.90
14099;DHT22;7126;48.458;7.930;2024-03-06T05:53:42;8.20;99.90
14099;DHT22;7126;48.458;7.930;2024-03-06T05:56:09;8.20;99.90
14099;DHT22;7126;48.458;7.930;2024-03-06T05:58:34;8.20;99.90
14099;DHT22;7126;48.458;7.930;2024-03-06T06:01:00;8.30;99.90
14099;DHT22;7126;48.458;7.930;2024-03-06T06:03:26;8.30;99.90
14099;DHT22;7126;48.458;7.930;2024-03-06T06:05:53;8.30;99.90
14099;DHT22;7126;48.458;7.930;2024-03-06T06:08:19;8.30;99.90
14099;DHT22;7126;48.458;7.930;2024-03-06T06:10:44;8.30;99.90
14099;DHT22;7126;48.458;7.930;2024-03-06T06:13:10;8.30;99.90
14099;DHT22;7126;48.458;7.930;2024-03-06T06:15:36;8.30;99.90
14099;DHT22;7126;48.458;7.930;2024-03-06T06:18:01;8.20;99.90
14099;DHT22;7126;48.458;7.930;2024-03-06T06:20:27;8.20;99.90
14099;DHT22;7126;48.458;7.930;2024-03-06T06:22:52;8.20;99.90
14099;DHT22;7126;48.458;7.930;2024-03-06T06:25:18;8.20;99.90
14099;DHT22;7126;48.458;7.930;2024-03-06T06:27:44;8.20;99.90
14099;DHT22;7126;48.458;7.930;2024-03-06T06:30:09;8.30;99.90
14099;DHT22;7126;48.458;7.930;2024-03-06T06:32:37;8.20;99.90
14099;DHT22;7126;48.458;7.930;2024-03-06T06:35:03;8.20;99.90
14099;DHT22;7126;48.458;7.930;2024-03-06T06:37:29;8.20;99.90
14099;DHT22;7126;48.458;7.930;2024-03-06T06:39:54;8.20;99.90
14099;DHT22;7126;48.458;7.930;2024-03-06T06:42:20;8.30;99.90
14099;DHT22;7126;48.458;7.930;2024-03-06T06:44:45;8.30;99.90
14099;DHT22;7126;48.458;7.930;2024-03-06T06:47:11;8.30;99.90
14099;DHT22;7126;48.458;7.930;2024-03-06T06:49:36;8.20;99.90
14099;DHT22;7126;48.458;7.930;2024-03-06T06:52:02;8.30;99.90
14099;DHT22;7126;48.458;7.930;2024-03-06T06:54:28;8.30;99.90
14099;DHT22;7126;48.458;7.930;2024-03-06T06:56:53;8.30;99.90
14099;DHT22;7126;48.458;7.930;2024-03-06T06:59:19;8.20;99.90
14099;DHT22;7126;48.458;7.930;2024-03-06T07:01:47;8.20;99.90
14099;DHT22;7126;48.458;7.930;2024-03-06T07:04:13;8.20;99.90
14099;DHT22;7126;48.458;7.930;2024-03-06T07:06:42;8.20;99.90
14099;DHT22;7126;48.458;7.930;2024-03-06T07:09:07;8.20;99.90
14099;DHT22;7126;48.458;7.930;2024-03-06T07:11:34;8.20;99.90
14099;DHT22;7126;48.458;7.930;2024-03-06T07:14:00;8.20;99.90
14099;DHT22;7126;48.458;7.930;2024-03-06T07:16:25;8.20;99.90
14099;DHT22;7126;48.458;7.930;2024-03-06T07:18:51;8.20;99.90
14099;DHT22;7126;48.458;7.930;2024-03-06T07:21:16;8.30;99.90
14099;DHT22;7126;48.458;7.930;2024-03-06T07:23:43;8.30;99.90
14099;DHT22;7126;48.458;7.930;2024-03-06T07:26:09;8.40;99.90
14099;DHT22;7126;48.458;7.930;2024-03-06T07:28:34;8.40;99.90
14099;DHT22;7126;48.458;7.930;2024-03-06T07:31:00;8.40;99.90
14099;DHT22;7126;48.458;7.930;2024-03-06T07:33:25;8.40;99.90
14099;DHT22;7126;48.458;7.930;2024-03-06T07:35:51;8.40;99.90
14099;DHT22;7126;48.458;7.930;2024-03-06T07:38:16;8.40;99.90
14099;DHT22;7126;48.458;7.930;2024-03-06T07:40:42;8.50;99.90
14099;DHT22;7126;48.458;7.930;2024-03-06T07:43:08;8.40;99.90
14099;DHT22;7126;48.458;7.930;2024-03-06T07:45:34;8.50;99.90
14099;DHT22;7126;48.458;7.930;2024-03-06T07:47:59;8.50;99.90
14099;DHT22;7126;48.458;7.930;2024-03-06T07:50:25;8.50;99.90
14099;DHT22;7126;48.458;7.930;2024-03-06T07:52:50;8.50;99.90
14099;DHT22;7126;48.458;7.930;2024-03-06T07:55:16;8.40;99.90
14099;DHT22;7126;48.458;7.930;2024-03-06T07:57:44;8.40;99.90
14099;DHT22;7126;48.458;7.930;2024-03-06T08:00:10;8.40;99.90
14099;DHT22;7126;48.458;7.930;2024-03-06T08:02:45;8.40;99.90
14099;DHT22;7126;48.458;7.930;2024-03-06T08:05:15;8.50;99.90
14099;DHT22;7126;48.458;7.930;2024-03-06T08:07:42;8.50;99.90
14099;DHT22;7126;48.458;7.930;2024-03-06T08:10:11;8.50;99.90
14099;DHT22;7126;48.458;7.930;2024-03-06T08:12:43;8.40;99.90
14099;DHT22;7126;48.458;7.930;2024-03-06T08:15:13;8.40;99.90
14099;DHT22;7126;48.458;7.930;2024-03-06T08:17:41;8.40;99.90
14099;DHT22;7126;48.458;7.930;2024-03-06T08:20:10;8.40;99.90
14099;DHT22;7126;48.458;7.930;2024-03-06T08:22:38;8.40;99.90
14099;DHT22;7126;48.458;7.930;2024-03-06T08:25:08;8.50;99.90
14099;DHT22;7126;48.458;7.930;2024-03-06T08:27:35;8.50;99.90
14099;DHT22;7126;48.458;7.930;2024-03-06T08:30:02;8.50;99.90
14099;DHT22;7126;48.458;7.930;2024-03-06T08:32:32;8.50;99.90
14099;DHT22;7126;48.458;7.930;2024-03-06T08:35:06;8.50;99.90
14099;DHT22;7126;48.458;7.930;2024-03-06T08:37:32;8.50;99.90
14099;DHT22;7126;48.458;7.930;2024-03-06T08:39:59;8.50;99.90
14099;DHT22;7126;48.458;7.930;2024-03-06T08:42:25;8.50;99.90
14099;DHT22;7126;48.458;7.930;2024-03-06T08:44:50;8.60;99.90
14099;DHT22;7126;48.458;7.930;2024-03-06T08:47:16;8.60;99.90
14099;DHT22;7126;48.458;7.930;2024-03-06T08:49:42;8.70;99.90
14099;DHT22;7126;48.458;7.930;2024-03-06T08:52:07;8.80;99.90
14099;DHT22;7126;48.458;7.930;2024-03-06T08:54:35;8.80;99.90
14099;DHT22;7126;48.458;7.930;2024-03-06T08:57:01;8.80;99.90
14099;DHT22;7126;48.458;7.930;2024-03-06T08:59:28;8.80;99.90
14099;DHT22;7126;48.458;7.930;2024-03-06T09:01:54;8.70;99.90
14099;DHT22;7126;48.458;7.930;2024-03-06T09:04:21;8.70;99.90
14099;DHT22;7126;48.458;7.930;2024-03-06T09:06:47;8.70;99.90
14099;DHT22;7126;48.458;7.930;2024-03-06T09:09:12;8.70;99.90
14099;DHT22;7126;48.458;7.930;2024-03-06T09:11:41;8.80;99.90
14099;DHT22;7126;48.458;7.930;2024-03-06T09:14:10;8.70;99.90
14099;DHT22;7126;48.458;7.930;2024-03-06T09:16:36;8.70;99.90
14099;DHT22;7126;48.458;7.930;2024-03-06T09:19:01;8.70;99.90
14099;DHT22;7126;48.458;7.930;2024-03-06T09:21:27;8.60;99.90
14099;DHT22;7126;48.458;7.930;2024-03-06T09:23:53;8.70;99.90
14099;DHT22;7126;48.458;7.930;2024-03-06T09:26:19;8.80;99.90
14099;DHT22;7126;48.458;7.930;2024-03-06T09:28:45;8.80;99.90
14099;DHT22;7126;48.458;7.930;2024-03-06T09:31:11;8.90;99.90
14099;DHT22;7126;48.458;7.930;2024-03-06T09:33:39;9.00;99.90
14099;DHT22;7126;48.458;7.930;2024-03-06T09:36:05;9.20;99.90
14099;DHT22;7126;48.458;7.930;2024-03-06T09:38:30;9.30;99.90
14099;DHT22;7126;48.458;7.930;2024-03-06T09:40:56;9.30;99.90
14099;DHT22;7126;48.458;7.930;2024-03-06T09:43:22;9.40;99.90
14099;DHT22;7126;48.458;7.930;2024-03-06T09:45:48;9.50;99.90
14099;DHT22;7126;48.458;7.930;2024-03-06T09:48:18;9.50;99.90
14099;DHT22;7126;48.458;7.930;2024-03-06T09:50:46;9.50;99.90
14099;DHT22;7126;48.458;7.930;2024-03-06T09:53:15;9.50;99.90
14099;DHT22;7126;48.458;7.930;2024-03-06T09:55:42;9.50;99.90
14099;DHT22;7126;48.458;7.930;2024-03-06T09:58:08;9.50;99.90
14099;DHT22;7126;48.458;7.930;2024-03-06T10:00:34;9.50;99.90
14099;DHT22;7126;48.458;7.930;2024-03-06T10:03:02;9.50;99.90
14099;DHT22;7126;48.458;7.930;2024-03-06T10:05:30;9.60;99.90
14099;DHT22;7126;48.458;7.930;2024-03-06T10:07:57;9.60;99.90
14099;DHT22;7126;48.458;7.930;2024-03-06T10:10:25;9.60;99.90
14099;DHT22;7126;48.458;7.930;2024-03-06T10:12:50;9.60;99.90
14099;DHT22;7126;48.458;7.930;2024-03-06T10:15:16;9.70;99.90
14099;DHT22;7126;48.458;7.930;2024-03-06T10:17:41;9.70;99.90
14099;DHT22;7126;48.458;7.930;2024-03-06T10:20:21;9.70;99.90
14099;DHT22;7126;48.458;7.930;2024-03-06T10:22:54;9.70;99.90
14099;DHT22;7126;48.458;7.930;2024-03-06T10:25:21;9.80;99.90
14099;DHT22;7126;48.458;7.930;2024-03-06T10:28:09;9.80;99.90
14099;DHT22;7126;48.458;7.930;2024-03-06T10:30:37;9.80;99.90
14099;DHT22;7126;48.458;7.930;2024-03-06T10:33:04;9.90;99.90
14099;DHT22;7126;48.458;7.930;2024-03-06T10:35:31;9.80;99.90
14099;DHT22;7126;48.458;7.930;2024-03-06T10:38:02;9.80;99.90
14099;DHT22;7126;48.458;7.930;2024-03-06T10:40:33;9.70;99.90
14099;DHT22;7126;48.458;7.930;2024-03-06T10:43:00;9.70;99.90
14099;DHT22;7126;48.458;7.930;2024-03-06T10:48:13;9.70;99.90
14099;DHT22;7126;48.458;7.930;2024-03-06T10:50:40;9.80;99.90
14099;DHT22;7126;48.458;7.930;2024-03-06T10:53:14;9.80;99.90
14099;DHT22;7126;48.458;7.930;2024-03-06T10:55:40;9.80;99.90
14099;DHT22;7126;48.458;7.930;2024-03-06T10:58:08;9.90;99.90
14099;DHT22;7126;48.458;7.930;2024-03-06T11:00:39;9.90;99.90
14099;DHT22;7126;48.458;7.930;2024-03-06T11:03:10;9.90;99.90
14099;DHT22;7126;48.458;7.930;2024-03-06T11:05:42;10.00;99.90
14099;DHT22;7126;48.458;7.930;2024-03-06T11:08:10;10.00;99.90
14099;DHT22;7126;48.458;7.930;2024-03-06T11:10:37;10.10;99.90
14099;DHT22;7126;48.458;7.930;2024-03-06T11:15:45;10.10;99.90
14099;DHT22;7126;48.458;7.930;2024-03-06T11:18:40;10.10;99.90
14099;DHT22;7126;48.458;7.930;2024-03-06T11:26:46;10.10;99.90
14099;DHT22;7126;48.458;7.930;2024-03-06T11:29:12;10.20;99.90
14099;DHT22;7126;48.458;7.930;2024-03-06T11:31:37;10.20;99.90
14099;DHT22;7126;48.458;7.930;2024-03-06T11:34:04;10.20;99.90
14099;DHT22;7126;48.458;7.930;2024-03-06T11:36:30;10.30;99.90
14099;DHT22;7126;48.458;7.930;2024-03-06T11:39:06;10.30;99.90
14099;DHT22;7126;48.458;7.930;2024-03-06T11:41:47;10.40;99.90
14099;DHT22;7126;48.458;7.930;2024-03-06T11:44:15;10.50;99.90
14099;DHT22;7126;48.458;7.930;2024-03-06T11:47:00;10.40;99.90
14099;DHT22;7126;48.458;7.930;2024-03-06T11:49:31;10.50;99.90
14099;DHT22;7126;48.458;7.930;2024-03-06T11:52:02;10.60;99.90
14099;DHT22;7126;48.458;7.930;2024-03-06T11:54:29;10.60;99.90
14099;DHT22;7126;48.458;7.930;2024-03-06T11:56:57;10.70;99.90
14099;DHT22;7126;48.458;7.930;2024-03-06T11:59:27;10.50;99.90
14099;DHT22;7126;48.458;7.930;2024-03-06T12:01:57;10.30;99.90
14099;DHT22;7126;48.458;7.930;2024-03-06T12:04:24;10.40;99.90
14099;DHT22;7126;48.458;7.930;2024-03-06T12:06:50;10.50;99.90
14099;DHT22;7126;48.458;7.930;2024-03-06T12:09:16;10.70;99.90
14099;DHT22;7126;48.458;7.930;2024-03-06T12:11:42;10.80;99.90
14099;DHT22;7126;48.458;7.930;2024-03-06T12:14:20;10.90;99.90
14099;DHT22;7126;48.458;7.930;2024-03-06T12:17:01;11.00;99.90
14099;DHT22;7126;48.458;7.930;2024-03-06T12:19:34;11.10;99.90
14099;DHT22;7126;48.458;7.930;2024-03-06T12:22:01;11.30;99.90
14099;DHT22;7126;48.458;7.930;2024-03-06T12:24:26;11.40;99.90
14099;DHT22;7126;48.458;7.930;2024-03-06T12:27:06;11.30;99.90
14099;DHT22;7126;48.458;7.930;2024-03-06T12:29:32;11.30;99.90
14099;DHT22;7126;48.458;7.930;2024-03-06T12:31:59;11.30;99.90
14099;DHT22;7126;48.458;7.930;2024-03-06T12:34:25;11.30;99.90
14099;DHT22;7126;48.458;7.930;2024-03-06T12:36:50;11.30;99.90
14099;DHT22;7126;48.458;7.930;2024-03-06T12:39:16;11.30;99.90
14099;DHT22;7126;48.458;7.930;2024-03-06T12:41:46;11.20;99.90
14099;DHT22;7126;48.458;7.930;2024-03-06T12:44:12;11.10;99.90
14099;DHT22;7126;48.458;7.930;2024-03-06T12:46:37;10.90;99.90
14099;DHT22;7126;48.458;7.930;2024-03-06T12:49:03;10.80;99.90
14099;DHT22;7126;48.458;7.930;2024-03-06T12:51:28;10.60;99.90
14099;DHT22;7126;48.458;7.930;2024-03-06T12:53:54;10.50;99.90
14099;DHT22;7126;48.458;7.930;2024-03-06T12:56:19;10.60;99.90
14099;DHT22;7126;48.458;7.930;2024-03-06T12:58:45;10.60;99.90
14099;DHT22;7126;48.458;7.930;2024-03-06T13:01:11;10.70;99.90
14099;DHT22;7126;48.458;7.930;2024-03-06T13:03:37;10.70;99.90
14099;DHT22;7126;48.458;7.930;2024-03-06T13:06:03;10.70;99.90
14099;DHT22;7126;48.458;7.930;2024-03-06T13:08:30;10.70;99.90
14099;DHT22;7126;48.458;7.930;2024-03-06T13:10:55;10.70;99.90
14099;DHT22;7126;48.458;7.930;2024-03-06T13:13:21;10.70;99.90
14099;DHT22;7126;48.458;7.930;2024-03-06T13:15:49;10.70;99.90
14099;DHT22;7126;48.458;7.930;2024-03-06T13:18:15;10.70;99.90
14099;DHT22;7126;48.458;7.930;2024-03-06T13:20:41;10.70;99.90
14099;DHT22;7126;48.458;7.930;2024-03-06T13:23:06;10.70;99.90
14099;DHT22;7126;48.458;7.930;2024-03-06T13:25:32;10.70;99.90
14099;DHT22;7126;48.458;7.930;2024-03-06T13:27:57;10.70;99.90
14099;DHT22;7126;48.458;7.930;2024-03-06T13:30:24;10.70;99.90
14099;DHT22;7126;48.458;7.930;2024-03-06T13:32:50;10.70;99.90
14099;DHT22;7126;48.458;7.930;2024-03-06T13:35:15;10.70;99.90
14099;DHT22;7126;48.458;7.930;2024-03-06T13:37:42;10.70;99.90
14099;DHT22;7126;48.458;7.930;2024-03-06T13:40:09;10.70;99.90
14099;DHT22;7126;48.458;7.930;2024-03-06T13:42:36;10.70;99.90
14099;DHT22;7126;48.458;7.930;2024-03-06T13:45:03;10.70;99.90
14099;DHT22;7126;48.458;7.930;2024-03-06T13:47:30;10.70;99.90
14099;DHT22;7126;48.458;7.930;2024-03-06T13:49:55;10.70;99.90
14099;DHT22;7126;48.458;7.930;2024-03-06T13:52:21;10.70;99.90
14099;DHT22;7126;48.458;7.930;2024-03-06T13:54:48;10.60;99.90
14099;DHT22;7126;48.458;7.930;2024-03-06T13:57:14;10.60;99.90
14099;DHT22;7126;48.458;7.930;2024-03-06T13:59:41;10.70;99.90
14099;DHT22;7126;48.458;7.930;2024-03-06T14:02:07;10.70;99.90
14099;DHT22;7126;48.458;7.930;2024-03-06T14:04:32;10.60;99.90
14099;DHT22;7126;48.458;7.930;2024-03-06T14:06:58;10.60;99.90
14099;DHT22;7126;48.458;7.930;2024-03-06T14:09:24;10.50;99.90
14099;DHT22;7126;48.458;7.930;2024-03-06T14:11:51;10.60;99.90
14099;DHT22;7126;48.458;7.930;2024-03-06T14:14:17;10.50;99.90
14099;DHT22;7126;48.458;7.930;2024-03-06T14:16:43;10.60;99.90
14099;DHT22;7126;48.458;7.930;2024-03-06T14:19:09;10.60;99.90
14099;DHT22;7126;48.458;7.930;2024-03-06T14:21:34;10.60;99.90
14099;DHT22;7126;48.458;7.930;2024-03-06T14:24:04;10.60;99.90
14099;DHT22;7126;48.458;7.930;2024-03-06T14:26:32;10.70;99.90
14099;DHT22;7126;48.458;7.930;2024-03-06T14:28:58;10.60;99.90
14099;DHT22;7126;48.458;7.930;2024-03-06T14:31:24;10.60;99.90
14099;DHT22;7126;48.458;7.930;2024-03-06T14:33:49;10.60;99.90
14099;DHT22;7126;48.458;7.930;2024-03-06T14:36:16;10.60;99.90
14099;DHT22;7126;48.458;7.930;2024-03-06T14:38:42;10.50;99.90
14099;DHT22;7126;48.458;7.930;2024-03-06T14:41:09;10.50;99.90
14099;DHT22;7126;48.458;7.930;2024-03-06T14:43:35;10.50;99.90
14099;DHT22;7126;48.458;7.930;2024-03-06T14:46:04;10.50;99.90
14099;DHT22;7126;48.458;7.930;2024-03-06T14:48:29;10.50;99.90
14099;DHT22;7126;48.458;7.930;2024-03-06T14:50:55;10.50;99.90
14099;DHT22;7126;48.458;7.930;2024-03-06T14:53:20;10.50;99.90
14099;DHT22;7126;48.458;7.930;2024-03-06T14:55:46;10.50;99.90
14099;DHT22;7126;48.458;7.930;2024-03-06T14:58:12;10.40;99.90
14099;DHT22;7126;48.458;7.930;2024-03-06T15:00:37;10.40;99.90
14099;DHT22;7126;48.458;7.930;2024-03-06T15:03:03;10.40;99.90
14099;DHT22;7126;48.458;7.930;2024-03-06T15:05:28;10.30;99.90
14099;DHT22;7126;48.458;7.930;2024-03-06T15:07:57;10.30;99.90
14099;DHT22;7126;48.458;7.930;2024-03-06T15:10:23;10.30;99.90
14099;DHT22;7126;48.458;7.930;2024-03-06T15:12:49;10.30;99.90
14099;DHT22;7126;48.458;7.930;2024-03-06T15:15:15;10.30;99.90
14099;DHT22;7126;48.458;7.930;2024-03-06T15:17:40;10.20;99.90
14099;DHT22;7126;48.458;7.930;2024-03-06T15:20:07;10.20;99.90
14099;DHT22;7126;48.458;7.930;2024-03-06T15:22:36;10.20;99.90
14099;DHT22;7126;48.458;7.930;2024-03-06T15:25:07;10.10;99.90
14099;DHT22;7126;48.458;7.930;2024-03-06T15:27:34;10.10;99.90
14099;DHT22;7126;48.458;7.930;2024-03-06T15:30:01;10.10;99.90
14099;DHT22;7126;48.458;7.930;2024-03-06T15:32:26;10.10;99.90
14099;DHT22;7126;48.458;7.930;2024-03-06T15:34:52;10.00;99.90
14099;DHT22;7126;48.458;7.930;2024-03-06T15:37:22;10.00;99.90
14099;DHT22;7126;48.458;7.930;2024-03-06T15:39:53;10.00;99.90
14099;DHT22;7126;48.458;7.930;2024-03-06T15:42:23;10.00;99.90
14099;DHT22;7126;48.458;7.930;2024-03-06T15:44:52;10.00;99.90
14099;DHT22;7126;48.458;7.930;2024-03-06T15:47:19;9.90;99.90
14099;DHT22;7126;48.458;7.930;2024-03-06T15:49:46;9.90;99.90
14099;DHT22;7126;48.458;7.930;2024-03-06T15:52:12;9.90;99.90
14099;DHT22;7126;48.458;7.930;2024-03-06T15:54:39;9.90;99.90
14099;DHT22;7126;48.458;7.930;2024-03-06T15:57:04;9.90;99.90
14099;DHT22;7126;48.458;7.930;2024-03-06T15:59:33;9.90;99.90
14099;DHT22;7126;48.458;7.930;2024-03-06T16:01:59;9.90;99.90
14099;DHT22;7126;48.458;7.930;2024-03-06T16:04:24;9.90;99.90